»·PEaware :: N535DC KAVX-KSAN

N535DC :: KAVX-KSAN

FLIGHT INFORMATION

Flight Status: Arrived
Operator: Privately registered:
United States
More flights under this callsign
Pilot: Derrik C. (23013)
Aircraft: SOCATA TBM-900
(TBM9)
More flights by this aircraft type
Origin: KAVX Catalina
United States
Destination: KSAN San Diego Intl-Lindbergh
United States
More flights between these airports :: More routes between these airports
Route: +SXC V208 LAX118 CARDI MZB320 MZB
File this flight plan on PilotEdge
Remarks: I-8 rating
Altitude:
(Current/Filed)
11,000ft
Speed:
(Current/Filed)
221kts
Departed: 29-Dec-19 01:01 PM
Arrived: 29-Dec-19 01:38 PM
Distance/Time
Traveled:
74nm/0:37
Distance/Time
To Go:
Arrived

Flight Plot

Page will automatically refresh every two minutes.


Map Options




Map Legend


Flown Route
Filed Route
Departure Airport
Arrival Airport
Navaid (VOR, NDB)
Fix

Horizontal Profiles

Position Reports

Time Latitude Longitude Heading Altitude Ground
Speed
29-Dec-19 12:44 33.403648 -118.414994 229 1565ft 0kts
29-Dec-19 12:45 33.403648 -118.414994 229 1565ft 0kts
29-Dec-19 12:46 33.403648 -118.414994 229 1565ft 0kts
29-Dec-19 12:47 33.403648 -118.414994 229 1565ft 0kts
29-Dec-19 12:48 33.403648 -118.414994 229 1565ft 0kts
29-Dec-19 12:49 33.403648 -118.414994 229 1565ft 0kts
29-Dec-19 12:50 33.403648 -118.414994 229 1565ft 0kts
29-Dec-19 12:51 33.403648 -118.414994 229 1565ft 0kts
29-Dec-19 12:52 33.403648 -118.414994 229 1565ft 0kts
29-Dec-19 12:53 33.403648 -118.414994 229 1565ft 0kts
29-Dec-19 12:54 33.403648 -118.414994 229 1565ft 0kts
29-Dec-19 12:55 33.403648 -118.414994 229 1565ft 0kts
29-Dec-19 12:56 33.403684 -118.415140 352 1565ft 7kts
29-Dec-19 12:57 33.406374 -118.412753 54 1555ft 11kts
29-Dec-19 12:58 33.407145 -118.411468 55 1550ft 0kts
29-Dec-19 12:59 33.407405 -118.411687 244 1550ft 13kts
29-Dec-19 13:00 33.393275 -118.433946 227 2970ft 109kts
29-Dec-19 13:01 33.373355 -118.405832 99 5476ft 155kts
29-Dec-19 13:02 33.364860 -118.341684 98 6115ft 229kts
29-Dec-19 13:03 33.355502 -118.270226 97 7510ft 217kts
29-Dec-19 13:04 33.345739 -118.195939 96 8925ft 233kts
29-Dec-19 13:05 33.334610 -118.111624 96 9003ft 268kts
29-Dec-19 13:06 33.322782 -118.022647 96 8999ft 273kts
29-Dec-19 13:07 33.310823 -117.933164 96 8999ft 272kts
29-Dec-19 13:08 33.298790 -117.843630 96 8999ft 271kts
29-Dec-19 13:09 33.286790 -117.754807 96 9000ft 270kts
29-Dec-19 13:10 33.274772 -117.666349 96 9000ft 270kts
29-Dec-19 13:11 33.262646 -117.577598 96 9000ft 270kts
29-Dec-19 13:12 33.250425 -117.488626 96 8998ft 270kts
29-Dec-19 13:13 33.228263 -117.403944 130 8988ft 275kts
29-Dec-19 13:14 33.159182 -117.378430 191 8983ft 268kts
29-Dec-19 13:15 33.087685 -117.353377 162 8975ft 272kts
29-Dec-19 13:16 33.017258 -117.323759 162 8633ft 266kts
29-Dec-19 13:17 32.949124 -117.295195 162 7830ft 256kts
29-Dec-19 13:18 32.886945 -117.269152 163 7063ft 241kts
29-Dec-19 13:19 32.828476 -117.244723 163 6974ft 214kts
29-Dec-19 13:20 32.778515 -117.216125 115 6969ft 211kts
29-Dec-19 13:21 32.767996 -117.151855 101 6747ft 212kts
29-Dec-19 13:22 32.756378 -117.084139 101 6057ft 211kts
29-Dec-19 13:23 32.744799 -117.017422 101 5359ft 205kts
29-Dec-19 13:24 32.733390 -116.952000 101 4968ft 198kts
29-Dec-19 13:25 32.722315 -116.889307 101 4969ft 188kts
29-Dec-19 13:26 32.711770 -116.829847 101 4955ft 180kts
29-Dec-19 13:27 32.683374 -116.797134 217 4939ft 170kts
29-Dec-19 13:28 32.663713 -116.846609 249 4958ft 168kts
29-Dec-19 13:29 32.663144 -116.898711 292 4977ft 168kts
29-Dec-19 13:30 32.674567 -116.945296 287 4431ft 124kts
29-Dec-19 13:31 32.685150 -116.989253 287 3533ft 139kts
29-Dec-19 13:32 32.695118 -117.030663 286 2507ft 126kts
29-Dec-19 13:33 32.704019 -117.067579 286 2122ft 108kts
29-Dec-19 13:34 32.712776 -117.103771 286 1591ft 117kts
29-Dec-19 13:35 32.720645 -117.136275 285 833ft 100kts
29-Dec-19 13:36 32.727200 -117.163476 285 366ft 90kts
29-Dec-19 13:37 32.732850 -117.186676 286 16ft 10kts
29-Dec-19 13:38 32.734206 -117.187973 22 16ft 9kts
29-Dec-19 13:39 32.734972 -117.188206 195 16ft 0kts
29-Dec-19 13:40 32.734972 -117.188206 195 16ft 0kts
29-Dec-19 13:41 32.734972 -117.188206 195 16ft 0kts
29-Dec-19 13:42 32.734972 -117.188206 195 16ft 0kts
29-Dec-19 13:43 32.734972 -117.188206 195 16ft 0kts
29-Dec-19 13:44 32.734972 -117.188206 195 16ft 0kts
29-Dec-19 13:45 32.734972 -117.188206 195 16ft 0kts
29-Dec-19 13:47 32.734972 -117.188206 195 16ft 0kts
29-Dec-19 13:48 32.734972 -117.188206 195 16ft 0kts
29-Dec-19 13:49 32.734972 -117.188206 195 16ft 0kts
29-Dec-19 13:50 32.734972 -117.188206 195 16ft 0kts
29-Dec-19 13:51 32.734972 -117.188206 195 16ft 0kts
29-Dec-19 13:52 32.734972 -117.188206 195 16ft 0kts

Navigation Log

Ident Type
Flight plan parsing failed, navigation log unavailable